createdAt,value
2022-12-07T00:04:51.200Z,99737.86
2022-12-07T00:07:23.632Z,99735.67
2022-12-07T00:09:54.820Z,99737.33
2022-12-07T00:12:23.096Z,99733.81
2022-12-07T00:14:51.381Z,99733.23
2022-12-07T00:17:19.742Z,99734.17
2022-12-07T00:19:48.078Z,99733.38
2022-12-07T00:22:16.346Z,99729.17
2022-12-07T00:24:44.645Z,99726.88
2022-12-07T00:27:12.940Z,99725.55
2022-12-07T00:29:41.239Z,99728.19
2022-12-07T00:32:09.702Z,99729.73
2022-12-07T00:34:38.147Z,99726.83
2022-12-07T00:37:06.543Z,99727.75
2022-12-07T00:39:34.791Z,99727.30
2022-12-07T00:42:03.277Z,99724.59
2022-12-07T00:44:31.571Z,99717.76
2022-12-07T00:46:59.929Z,99714.38
2022-12-07T00:49:28.197Z,99714.56
2022-12-07T00:51:56.674Z,99712.20
2022-12-07T00:55:04.180Z,99710.67
2022-12-07T00:57:32.635Z,99707.60
2022-12-07T01:00:02.011Z,99708.11
2022-12-07T01:02:30.514Z,99703.83
2022-12-07T01:04:58.882Z,99703.52
2022-12-07T01:07:27.168Z,99705.43
2022-12-07T01:09:55.460Z,99703.23
2022-12-07T01:12:23.751Z,99705.83
2022-12-07T01:14:52.057Z,99704.98
2022-12-07T01:17:20.335Z,99706.00
2022-12-07T01:19:48.693Z,99706.80
2022-12-07T01:22:17.023Z,99704.52
2022-12-07T01:24:45.440Z,99704.66
2022-12-07T01:27:15.200Z,99707.72
2022-12-07T01:29:43.574Z,99704.14
2022-12-07T01:32:12.451Z,99702.76
2022-12-07T01:34:40.881Z,99703.77
2022-12-07T01:37:09.260Z,99699.45
2022-12-07T01:39:37.553Z,99699.10
2022-12-07T01:42:06.045Z,99698.23
2022-12-07T01:44:34.433Z,99699.09
2022-12-07T01:47:06.299Z,99698.02
2022-12-07T01:49:36.996Z,99697.82
2022-12-07T01:52:23.419Z,99697.10
2022-12-07T01:54:58.453Z,99700.68
2022-12-07T01:57:27.720Z,99696.06
2022-12-07T01:59:57.993Z,99696.77
2022-12-07T02:02:39.523Z,99692.52
2022-12-07T02:05:08.564Z,99690.31
2022-12-07T02:07:40.021Z,99687.90
2022-12-07T02:10:17.499Z,99691.31
2022-12-07T02:12:48.888Z,99693.52
2022-12-07T02:15:17.893Z,99688.36
2022-12-07T02:17:58.263Z,99684.94
2022-12-07T02:20:34.632Z,99682.59
2022-12-07T02:23:18.433Z,99683.45
2022-12-07T02:26:30.866Z,99679.00
2022-12-07T02:29:18.010Z,99679.17
2022-12-07T02:32:08.723Z,99668.02
2022-12-07T02:35:02.271Z,99670.09
2022-12-07T02:37:44.411Z,99666.48
2022-12-07T02:40:45.529Z,99663.39
2022-12-07T02:43:24.704Z,99663.55
2022-12-07T02:46:08.422Z,99662.84
2022-12-07T02:48:39.988Z,99665.72
2022-12-07T02:51:08.450Z,99664.30
2022-12-07T02:54:02.849Z,99663.52
2022-12-07T02:56:46.542Z,99663.29
2022-12-07T02:59:41.809Z,99659.86
2022-12-07T03:02:37.800Z,99659.33
2022-12-07T03:05:41.770Z,99657.05
2022-12-07T03:08:40.351Z,99655.52
2022-12-07T03:11:20.428Z,99657.83
2022-12-07T03:14:09.107Z,99657.95
2022-12-07T03:16:47.596Z,99655.70
2022-12-07T03:19:21.273Z,99658.64
2022-12-07T03:22:04.188Z,99660.41
2022-12-07T03:24:40.326Z,99660.10
2022-12-07T03:27:13.188Z,99660.27
2022-12-07T03:29:51.332Z,99658.88
2022-12-07T03:32:31.411Z,99659.98
2022-12-07T03:35:02.893Z,99661.50
2022-12-07T03:37:39.404Z,99660.86
2022-12-07T03:40:19.823Z,99663.73
2022-12-07T03:42:48.809Z,99664.83
2022-12-07T03:45:17.965Z,99662.67
2022-12-07T03:48:05.198Z,99665.56
2022-12-07T03:50:39.309Z,99664.18
2022-12-07T03:53:34.813Z,99662.55
2022-12-07T03:56:04.500Z,99664.16
2022-12-07T03:58:34.754Z,99664.00
2022-12-07T04:01:03.396Z,99664.20
2022-12-07T04:03:31.806Z,99662.36
2022-12-07T04:06:01.040Z,99665.34
2022-12-07T04:08:29.474Z,99665.23
2022-12-07T04:10:57.824Z,99660.66
2022-12-07T04:13:26.474Z,99660.98
2022-12-07T04:15:54.898Z,99657.76
2022-12-07T04:18:23.281Z,99657.49
2022-12-07T04:20:51.627Z,99652.41
2022-12-07T04:23:19.967Z,99654.17
2022-12-07T04:25:50.229Z,99648.59
2022-12-07T04:28:18.561Z,99647.41
2022-12-07T04:30:47.080Z,99647.61
2022-12-07T04:33:15.433Z,99645.54
2022-12-07T04:35:44.547Z,99641.84
2022-12-07T04:38:12.954Z,99641.21
2022-12-07T04:40:41.376Z,99640.05
2022-12-07T04:43:09.682Z,99634.53
2022-12-07T04:45:37.984Z,99633.96
2022-12-07T04:48:06.677Z,99627.11
2022-12-07T04:50:44.575Z,99624.46
2022-12-07T04:53:14.696Z,99624.10
2022-12-07T04:55:43.285Z,99622.61
2022-12-07T04:58:12.137Z,99622.79
2022-12-07T05:00:41.306Z,99620.13
2022-12-07T05:03:09.720Z,99615.19
2022-12-07T05:05:41.983Z,99620.17
2022-12-07T05:08:10.508Z,99623.63
2022-12-07T05:10:39.021Z,99624.34
2022-12-07T05:13:07.358Z,99626.90
2022-12-07T05:15:35.714Z,99623.83
2022-12-07T05:18:04.942Z,99621.77
2022-12-07T05:20:36.651Z,99621.89
2022-12-07T05:23:09.722Z,99620.32
2022-12-07T05:25:38.515Z,99614.46
2022-12-07T05:28:07.544Z,99611.34
2022-12-07T05:30:36.114Z,99607.95
2022-12-07T05:33:04.979Z,99609.31
2022-12-07T05:35:33.358Z,99610.17
2022-12-07T05:38:01.709Z,99602.15
2022-12-07T05:40:30.081Z,99611.92
2022-12-07T05:43:04.005Z,99608.85
2022-12-07T05:45:33.215Z,99613.48
2022-12-07T05:48:01.610Z,99605.77
2022-12-07T05:50:30.435Z,99599.27
2022-12-07T05:52:58.815Z,99603.20
2022-12-07T05:55:53.304Z,99600.06
2022-12-07T05:58:40.339Z,99597.77
2022-12-07T06:01:08.723Z,99597.96
2022-12-07T06:03:37.180Z,99599.32
2022-12-07T06:06:05.834Z,99600.84
2022-12-07T06:08:34.324Z,99599.58
2022-12-07T06:11:21.233Z,99595.73
2022-12-07T06:13:49.767Z,99590.64
2022-12-07T06:16:18.271Z,99592.60
2022-12-07T06:18:46.643Z,99593.41
2022-12-07T06:21:15.814Z,99593.98
2022-12-07T06:23:44.150Z,99595.55
2022-12-07T06:26:12.553Z,99594.08
2022-12-07T06:28:42.165Z,99593.83
2022-12-07T06:31:14.154Z,99589.41
2022-12-07T06:33:44.027Z,99592.91
2022-12-07T06:36:13.110Z,99595.39
2022-12-07T06:38:41.684Z,99593.89
2022-12-07T06:41:10.064Z,99594.41
2022-12-07T06:43:38.479Z,99592.19
2022-12-07T06:46:07.424Z,99592.16
2022-12-07T06:48:35.869Z,99592.98
2022-12-07T06:51:04.555Z,99591.61
2022-12-07T06:53:40.070Z,99592.30
2022-12-07T06:56:09.059Z,99591.64
2022-12-07T06:58:38.150Z,99589.27
2022-12-07T07:01:14.296Z,99593.39
2022-12-07T07:03:43.486Z,99595.43
2022-12-07T07:06:12.364Z,99589.61
2022-12-07T07:08:41.772Z,99592.46
2022-12-07T07:11:11.584Z,99590.23
2022-12-07T07:13:40.301Z,99590.58
2022-12-07T07:16:09.354Z,99590.05
2022-12-07T07:18:38.325Z,99587.44
2022-12-07T07:21:06.750Z,99584.69
2022-12-07T07:23:35.433Z,99581.76
2022-12-07T07:26:03.928Z,99581.39
2022-12-07T07:28:32.616Z,99579.84
2022-12-07T07:31:01.573Z,99577.69
2022-12-07T07:33:29.962Z,99579.19
2022-12-07T07:35:58.408Z,99572.31
2022-12-07T07:38:26.731Z,99576.02
2022-12-07T07:40:55.182Z,99573.94
2022-12-07T07:43:23.627Z,99571.56
2022-12-07T07:45:52.228Z,99572.77
2022-12-07T07:48:20.629Z,99575.52
2022-12-07T07:50:48.981Z,99576.77
2022-12-07T07:53:17.390Z,99574.03
2022-12-07T07:55:53.792Z,99574.04
2022-12-07T07:58:22.958Z,99570.96
2022-12-07T08:00:51.461Z,99567.54
2022-12-07T08:03:22.647Z,99565.82
2022-12-07T08:05:52.409Z,99567.93
2022-12-07T08:08:20.979Z,99569.52
2022-12-07T08:10:49.307Z,99564.94
2022-12-07T08:13:18.343Z,99562.29
2022-12-07T08:15:49.353Z,99562.67
2022-12-07T08:18:17.756Z,99557.95
2022-12-07T08:20:46.279Z,99557.13
2022-12-07T08:23:14.675Z,99555.26
2022-12-07T08:25:43.153Z,99553.71
2022-12-07T08:28:11.742Z,99554.73
2022-12-07T08:30:40.402Z,99553.70
2022-12-07T08:33:08.886Z,99551.80
2022-12-07T08:35:37.675Z,99554.77
2022-12-07T08:38:06.145Z,99555.68
2022-12-07T08:40:34.600Z,99559.21
2022-12-07T08:43:03.076Z,99558.07
2022-12-07T08:45:36.762Z,99562.94
2022-12-07T08:48:13.263Z,99560.71
2022-12-07T08:50:47.599Z,99551.90
2022-12-07T08:53:18.537Z,99549.55
2022-12-07T08:55:50.023Z,99543.61
2022-12-07T08:58:18.512Z,99551.02
2022-12-07T09:00:46.978Z,99548.00
2022-12-07T09:03:15.541Z,99543.94
2022-12-07T09:05:44.163Z,99545.89
2022-12-07T09:08:12.939Z,99545.83
2022-12-07T09:10:41.369Z,99540.85
2022-12-07T09:13:09.737Z,99541.35
2022-12-07T09:15:38.138Z,99538.96
2022-12-07T09:18:06.829Z,99539.81
2022-12-07T09:20:35.253Z,99536.58
2022-12-07T09:23:03.909Z,99533.33
2022-12-07T09:25:32.536Z,99527.25
2022-12-07T09:28:01.653Z,99525.15
2022-12-07T09:30:30.219Z,99522.91
2022-12-07T09:32:59.326Z,99523.98
2022-12-07T09:35:27.846Z,99522.10
2022-12-07T09:37:56.264Z,99517.52
2022-12-07T09:40:26.529Z,99518.56
2022-12-07T09:42:57.383Z,99515.89
2022-12-07T09:45:32.904Z,99512.17
2022-12-07T09:48:01.658Z,99504.73
2022-12-07T09:50:31.373Z,99502.94
2022-12-07T09:53:13.759Z,99495.64
2022-12-07T09:55:45.076Z,99499.05
2022-12-07T09:58:27.637Z,99495.29
2022-12-07T10:01:18.117Z,99490.88
2022-12-07T10:03:57.049Z,99487.53
2022-12-07T10:06:25.505Z,99486.77
2022-12-07T10:08:53.862Z,99482.52
2022-12-07T10:11:22.513Z,99481.34
2022-12-07T10:13:56.252Z,99467.18
2022-12-07T10:16:40.737Z,99463.95
2022-12-07T10:19:27.963Z,99460.54
2022-12-07T10:22:15.539Z,99454.41
2022-12-07T10:24:47.671Z,99448.88
2022-12-07T10:27:22.874Z,99448.15
2022-12-07T10:29:53.622Z,99449.26
2022-12-07T10:32:21.920Z,99446.17
2022-12-07T10:34:52.324Z,99443.98
2022-12-07T10:37:30.308Z,99442.63
2022-12-07T10:39:59.029Z,99444.72
2022-12-07T10:42:33.718Z,99438.83
2022-12-07T10:45:19.525Z,99434.05
2022-12-07T10:48:03.045Z,99428.58
2022-12-07T10:51:09.082Z,99425.97
2022-12-07T10:53:52.770Z,99423.45
2022-12-07T10:56:41.754Z,99424.20
2022-12-07T10:59:26.294Z,99422.21
2022-12-07T11:02:03.922Z,99421.20
2022-12-07T11:05:02.298Z,99418.34
2022-12-07T11:07:53.642Z,99410.55
2022-12-07T11:10:41.064Z,99416.08
2022-12-07T11:13:28.403Z,99413.55
2022-12-07T11:16:21.531Z,99411.04
2022-12-07T11:19:05.616Z,99403.92
2022-12-07T11:21:49.645Z,99400.33
2022-12-07T11:24:21.334Z,99391.91
2022-12-07T11:27:06.919Z,99389.31
2022-12-07T11:29:50.374Z,99381.89
2022-12-07T11:32:39.437Z,99377.10
2022-12-07T11:35:26.366Z,99373.36
2022-12-07T11:38:03.159Z,99368.20
2022-12-07T11:40:40.907Z,99365.25
2022-12-07T11:43:23.011Z,99364.17
2022-12-07T11:46:13.833Z,99364.66
2022-12-07T11:49:12.808Z,99364.26
2022-12-07T11:51:44.502Z,99357.01
2022-12-07T11:54:26.640Z,99356.93
2022-12-07T11:56:57.947Z,99355.35
2022-12-07T11:59:37.923Z,99354.16
2022-12-07T12:02:28.223Z,99352.81
2022-12-07T12:05:20.138Z,99349.96
2022-12-07T12:11:02.866Z,99351.77
2022-12-07T12:17:17.358Z,99349.53
2022-12-07T12:20:06.517Z,99347.39
2022-12-07T12:22:43.474Z,99343.81
2022-12-07T12:25:20.245Z,99345.34
2022-12-07T12:27:51.890Z,99343.10
2022-12-07T12:30:35.899Z,99343.73
2022-12-07T12:33:37.023Z,99339.26
2022-12-07T12:36:17.573Z,99336.16
2022-12-07T12:39:00.329Z,99331.52
2022-12-07T12:41:58.497Z,99336.26
2022-12-07T12:44:30.006Z,99333.97
2022-12-07T12:47:00.407Z,99330.49
2022-12-07T12:49:44.324Z,99335.22
2022-12-07T12:52:15.790Z,99327.09
2022-12-07T12:55:13.682Z,99323.29
2022-12-07T12:57:42.218Z,99326.50
2022-12-07T13:00:18.503Z,99321.66
2022-12-07T13:02:53.467Z,99319.77
2022-12-07T13:05:28.999Z,99317.70
2022-12-07T13:08:01.770Z,99319.02
2022-12-07T13:10:37.387Z,99314.33
2022-12-07T13:13:25.911Z,99310.17
2022-12-07T13:16:07.915Z,99310.97
2022-12-07T13:18:40.222Z,99313.69
2022-12-07T13:21:08.609Z,99317.26
2022-12-07T13:23:46.216Z,99319.95
2022-12-07T13:26:22.355Z,99317.84
2022-12-07T13:29:11.091Z,99318.21
2022-12-07T13:31:54.425Z,99322.16
2022-12-07T13:34:43.226Z,99324.40
2022-12-07T13:37:38.204Z,99325.85
2022-12-07T13:40:21.370Z,99325.35
2022-12-07T13:42:58.358Z,99333.45
2022-12-07T13:45:58.987Z,99335.69
2022-12-07T13:48:52.277Z,99336.56
2022-12-07T13:51:37.070Z,99340.50
2022-12-07T13:54:12.924Z,99343.45
2022-12-07T13:56:45.126Z,99348.04
2022-12-07T13:59:18.656Z,99349.41
2022-12-07T14:01:49.605Z,99350.29
2022-12-07T14:04:38.673Z,99354.06
2022-12-07T14:07:23.713Z,99355.78
2022-12-07T14:10:03.855Z,99356.34
2022-12-07T14:12:33.586Z,99353.81
2022-12-07T14:15:03.750Z,99356.24
2022-12-07T14:17:32.446Z,99359.02
2022-12-07T14:20:03.551Z,99365.05
2022-12-07T14:22:33.835Z,99367.64
2022-12-07T14:25:13.607Z,99372.99
2022-12-07T14:27:59.627Z,99375.79
2022-12-07T14:30:31.256Z,99373.45
2022-12-07T14:33:05.917Z,99374.52
2022-12-07T14:35:34.865Z,99376.31
2022-12-07T14:38:03.459Z,99381.37
2022-12-07T14:40:32.807Z,99383.89
2022-12-07T14:43:12.943Z,99384.67
2022-12-07T14:45:42.027Z,99387.14
2022-12-07T14:53:57.282Z,99391.16
2022-12-07T14:56:26.754Z,99398.45
2022-12-07T14:58:55.352Z,99400.42
2022-12-07T15:01:23.682Z,99400.30
2022-12-07T15:03:52.352Z,99399.50
2022-12-07T15:06:20.844Z,99398.33
2022-12-07T15:08:49.272Z,99403.98
2022-12-07T15:11:19.479Z,99406.39
2022-12-07T15:14:20.507Z,99408.58
2022-12-07T15:19:37.408Z,99416.60
2022-12-07T15:22:06.002Z,99412.16
2022-12-07T15:24:34.988Z,99412.33
2022-12-07T15:27:03.660Z,99418.36
2022-12-07T15:29:32.073Z,99419.59
2022-12-07T15:32:00.901Z,99418.30
2022-12-07T15:34:36.497Z,99421.65
2022-12-07T15:37:09.189Z,99420.25
2022-12-07T15:39:38.559Z,99422.02
2022-12-07T15:42:06.833Z,99421.09
2022-12-07T15:44:53.680Z,99427.83
2022-12-07T15:47:22.160Z,99432.48
2022-12-07T15:49:51.191Z,99429.58
2022-12-07T15:52:20.818Z,99431.09
2022-12-07T15:54:58.873Z,99431.39
2022-12-07T15:57:28.619Z,99431.02
2022-12-07T15:59:57.681Z,99432.52
2022-12-07T16:02:27.662Z,99428.06
2022-12-07T16:04:56.205Z,99428.06
2022-12-07T16:07:24.704Z,99436.95
2022-12-07T16:09:53.083Z,99437.64
2022-12-07T16:12:22.178Z,99441.58
2022-12-07T16:14:50.988Z,99439.71
2022-12-07T16:17:19.757Z,99439.39
2022-12-07T16:19:49.893Z,99442.31
2022-12-07T16:22:18.277Z,99443.36
2022-12-07T16:24:46.830Z,99444.56
2022-12-07T16:27:15.246Z,99446.80
2022-12-07T16:29:43.976Z,99449.38
2022-12-07T16:32:12.444Z,99449.25
2022-12-07T16:34:41.456Z,99445.35
2022-12-07T16:37:10.129Z,99443.16
2022-12-07T16:39:39.060Z,99440.30
2022-12-07T16:42:07.956Z,99433.53
2022-12-07T16:44:36.428Z,99437.31
2022-12-07T16:47:05.100Z,99436.50
2022-12-07T16:49:33.953Z,99436.00
2022-12-07T16:52:19.249Z,99435.70
2022-12-07T16:54:53.093Z,99437.76
2022-12-07T16:57:23.900Z,99438.44
2022-12-07T16:59:53.917Z,99440.52
2022-12-07T17:02:22.573Z,99443.42
2022-12-07T17:04:52.128Z,99442.89
2022-12-07T17:07:20.641Z,99444.41
2022-12-07T17:09:49.047Z,99438.80
2022-12-07T17:12:19.366Z,99443.95
2022-12-07T17:15:06.739Z,99446.70
2022-12-07T17:17:35.875Z,99441.39
2022-12-07T17:20:05.317Z,99443.80
2022-12-07T17:22:34.365Z,99444.15
2022-12-07T17:25:05.020Z,99443.84
2022-12-07T17:27:34.320Z,99443.50
2022-12-07T17:30:05.427Z,99446.22
2022-12-07T17:32:34.356Z,99443.28
2022-12-07T17:35:03.636Z,99445.83
2022-12-07T17:37:34.492Z,99444.59
2022-12-07T17:40:03.028Z,99446.64
2022-12-07T17:42:38.107Z,99446.44
2022-12-07T17:45:11.393Z,99443.73
2022-12-07T17:47:42.037Z,99440.61
2022-12-07T17:50:11.617Z,99437.04
2022-12-07T17:52:59.659Z,99439.75
2022-12-07T17:56:26.892Z,99437.67
2022-12-07T17:58:43.610Z,99435.43
2022-12-07T18:01:12.188Z,99441.36
2022-12-07T18:03:41.539Z,99443.06
2022-12-07T18:06:10.168Z,99443.08
2022-12-07T18:08:39.248Z,99440.30
2022-12-07T18:11:07.910Z,99435.88
2022-12-07T18:13:38.945Z,99440.27
2022-12-07T18:16:15.186Z,99440.92
2022-12-07T18:18:54.019Z,99438.40
2022-12-07T18:21:26.532Z,99438.08
2022-12-07T18:23:59.292Z,99436.77
2022-12-07T18:26:36.588Z,99437.34
2022-12-07T18:29:12.835Z,99439.92
2022-12-07T18:31:45.860Z,99444.51
2022-12-07T18:34:17.797Z,99441.92
2022-12-07T18:36:52.432Z,99444.11
2022-12-07T18:39:21.738Z,99442.88
2022-12-07T18:41:52.031Z,99443.69
2022-12-07T18:44:21.041Z,99447.09
2022-12-07T18:46:51.149Z,99443.68
2022-12-07T18:49:22.080Z,99440.31
2022-12-07T18:51:51.564Z,99437.95
2022-12-07T18:54:27.172Z,99438.69
2022-12-07T18:56:57.301Z,99440.29
2022-12-07T18:59:46.098Z,99440.35
2022-12-07T19:02:15.746Z,99439.91
2022-12-07T19:04:46.678Z,99441.48
2022-12-07T19:07:16.265Z,99438.61
2022-12-07T19:09:46.792Z,99440.36
2022-12-07T19:12:16.294Z,99441.42
2022-12-07T19:14:46.536Z,99441.24
2022-12-07T19:17:16.872Z,99442.45
2022-12-07T19:19:49.096Z,99442.62
2022-12-07T19:22:23.079Z,99447.05
2022-12-07T19:24:54.900Z,99446.88
2022-12-07T19:27:28.403Z,99451.63
2022-12-07T19:29:58.245Z,99449.91
2022-12-07T19:32:31.043Z,99445.81
2022-12-07T19:35:03.430Z,99447.86
2022-12-07T19:37:34.041Z,99442.77
2022-12-07T19:40:03.910Z,99446.57
2022-12-07T19:42:36.713Z,99443.19
2022-12-07T19:45:07.441Z,99444.27
2022-12-07T19:47:37.602Z,99445.31
2022-12-07T19:50:15.805Z,99444.52
2022-12-07T19:52:45.729Z,99448.48
2022-12-07T19:55:41.000Z,99449.70
2022-12-07T19:58:10.601Z,99449.74
2022-12-07T20:00:40.988Z,99451.33
2022-12-07T20:03:16.131Z,99451.89
2022-12-07T20:05:47.165Z,99452.61
2022-12-07T20:08:20.661Z,99452.46
2022-12-07T20:10:53.029Z,99453.17
2022-12-07T20:13:29.751Z,99451.99
2022-12-07T20:16:19.272Z,99455.06
2022-12-07T20:18:57.208Z,99457.45
2022-12-07T20:21:27.739Z,99455.09
2022-12-07T20:24:00.610Z,99454.60
2022-12-07T20:26:32.998Z,99453.95
2022-12-07T20:29:10.936Z,99452.10
2022-12-07T20:31:50.592Z,99454.17
2022-12-07T20:34:23.231Z,99456.07
2022-12-07T20:36:54.890Z,99453.36
2022-12-07T20:39:25.100Z,99452.03
2022-12-07T20:42:15.237Z,99454.59
2022-12-07T20:44:48.089Z,99457.34
2022-12-07T20:47:18.222Z,99457.35
2022-12-07T20:49:52.597Z,99458.92
2022-12-07T20:52:22.808Z,99457.05
2022-12-07T20:54:51.850Z,99460.13
2022-12-07T20:57:21.092Z,99460.99
2022-12-07T20:59:50.272Z,99460.65
2022-12-07T21:02:19.604Z,99459.96
2022-12-07T21:04:49.054Z,99461.14
2022-12-07T21:07:19.174Z,99464.86
2022-12-07T21:09:52.031Z,99459.42
2022-12-07T21:12:21.038Z,99463.48
2022-12-07T21:14:50.165Z,99460.45
2022-12-07T21:17:19.211Z,99460.98
2022-12-07T21:19:47.999Z,99458.27
2022-12-07T21:22:16.500Z,99461.02
2022-12-07T21:24:45.283Z,99463.77
2022-12-07T21:27:13.753Z,99471.11
2022-12-07T21:29:45.118Z,99474.20
2022-12-07T21:32:15.087Z,99477.27
2022-12-07T21:34:44.238Z,99481.22
2022-12-07T21:37:13.061Z,99478.83
2022-12-07T21:39:41.582Z,99486.33
2022-12-07T21:42:10.075Z,99486.84
2022-12-07T21:44:38.531Z,99489.05
2022-12-07T21:47:07.299Z,99490.42
2022-12-07T21:49:36.703Z,99495.20
2022-12-07T21:52:05.967Z,99497.59
2022-12-07T21:54:34.783Z,99496.56
2022-12-07T21:57:03.999Z,99500.83
2022-12-07T21:59:32.649Z,99506.45
2022-12-07T22:02:01.282Z,99504.73
2022-12-07T22:04:29.861Z,99504.39
2022-12-07T22:06:59.513Z,99507.59
2022-12-07T22:09:30.694Z,99513.00
2022-12-07T22:11:59.953Z,99511.46
2022-12-07T22:14:47.334Z,99510.55
2022-12-07T22:17:15.832Z,99506.63
2022-12-07T22:19:44.218Z,99506.09
2022-12-07T22:22:16.606Z,99508.80
2022-12-07T22:24:45.074Z,99509.48
2022-12-07T22:27:13.459Z,99509.82
2022-12-07T22:29:42.134Z,99515.97
2022-12-07T22:32:39.939Z,99520.05
2022-12-07T22:34:59.404Z,99521.58
2022-12-07T22:37:29.849Z,99519.86
2022-12-07T22:39:58.735Z,99520.38
2022-12-07T22:42:27.742Z,99522.43
2022-12-07T22:44:56.733Z,99519.56
2022-12-07T22:47:25.301Z,99518.75
2022-12-07T22:49:53.910Z,99518.10
2022-12-07T22:52:23.032Z,99516.92
2022-12-07T22:54:52.205Z,99517.27
2022-12-07T22:57:20.822Z,99515.77
2022-12-07T22:59:49.488Z,99516.96
2022-12-07T23:02:18.104Z,99515.27
2022-12-07T23:04:46.680Z,99513.40
2022-12-07T23:07:15.299Z,99505.92
2022-12-07T23:09:44.058Z,99504.91
2022-12-07T23:12:31.090Z,99499.14
2022-12-07T23:14:59.498Z,99501.73
2022-12-07T23:17:28.377Z,99504.13
2022-12-07T23:19:57.396Z,99509.26
2022-12-07T23:22:25.937Z,99512.66
2022-12-07T23:24:54.473Z,99511.13
2022-12-07T23:27:23.794Z,99515.55
2022-12-07T23:29:52.386Z,99519.29
2022-12-07T23:32:20.784Z,99520.98
2022-12-07T23:34:49.229Z,99523.36
2022-12-07T23:37:18.299Z,99525.38
2022-12-07T23:39:46.637Z,99529.64
2022-12-07T23:42:15.043Z,99531.67
2022-12-07T23:44:43.489Z,99529.78
2022-12-07T23:47:11.999Z,99530.96
2022-12-07T23:49:40.415Z,99531.14
2022-12-07T23:52:08.935Z,99528.25
2022-12-07T23:54:43.651Z,99534.56
2022-12-07T23:57:12.158Z,99534.06
2022-12-07T23:59:40.480Z,99536.64
